createdAt,value
2022-12-23T00:01:30.079Z,1.63
2022-12-23T00:03:58.544Z,1.23
2022-12-23T00:06:25.966Z,1.37
2022-12-23T00:08:58.370Z,1.40
2022-12-23T00:11:27.154Z,1.00
2022-12-23T00:14:19.936Z,1.47
2022-12-23T00:16:48.241Z,1.20
2022-12-23T00:19:15.574Z,1.33
2022-12-23T00:21:42.876Z,1.50
2022-12-23T00:24:11.224Z,1.60
2022-12-23T00:26:38.485Z,1.20
2022-12-23T00:29:05.867Z,1.20
2022-12-23T00:31:33.280Z,1.50
2022-12-23T00:34:00.707Z,1.43
2022-12-23T00:36:28.985Z,1.07
2022-12-23T00:39:15.830Z,0.97
2022-12-23T00:42:01.776Z,1.10
2022-12-23T00:44:29.200Z,1.33
2022-12-23T00:46:56.594Z,1.10
2022-12-23T00:49:42.338Z,1.30
2022-12-23T00:52:11.561Z,1.10
2022-12-23T00:54:38.901Z,1.80
2022-12-23T00:57:06.512Z,1.13
2022-12-23T00:59:34.226Z,0.93
2022-12-23T01:02:20.825Z,1.50
2022-12-23T01:05:06.897Z,1.27
2022-12-23T01:07:34.337Z,1.17
2022-12-23T01:10:01.819Z,1.27
2022-12-23T01:12:29.175Z,1.53
2022-12-23T01:14:56.497Z,1.43
2022-12-23T01:17:23.933Z,1.20
2022-12-23T01:19:51.626Z,1.10
2022-12-23T01:22:18.895Z,1.40
2022-12-23T01:24:46.184Z,1.30
2022-12-23T01:27:13.541Z,1.17
2022-12-23T01:29:40.937Z,1.37
2022-12-23T01:32:08.334Z,1.20
2022-12-23T01:34:37.405Z,0.97
2022-12-23T01:37:05.865Z,1.30
2022-12-23T01:39:33.220Z,1.57
2022-12-23T01:42:19.370Z,1.40
2022-12-23T01:44:49.200Z,1.40
2022-12-23T01:47:19.681Z,1.60
2022-12-23T01:49:47.776Z,1.37
2022-12-23T01:52:15.381Z,1.53
2022-12-23T01:54:43.667Z,1.33
2022-12-23T01:57:11.123Z,1.17
2022-12-23T01:59:57.175Z,1.30
2022-12-23T02:02:43.731Z,1.30
2022-12-23T02:05:11.163Z,1.10
2022-12-23T02:07:57.627Z,1.00
2022-12-23T02:10:27.522Z,1.17
2022-12-23T02:13:05.217Z,1.20
2022-12-23T02:16:02.907Z,1.30
2022-12-23T02:18:36.815Z,1.10
2022-12-23T02:21:23.120Z,1.20
2022-12-23T02:24:15.689Z,1.07
2022-12-23T02:26:57.451Z,1.40
2022-12-23T02:29:24.728Z,0.90
2022-12-23T02:32:15.330Z,1.20
2022-12-23T02:35:01.436Z,1.70
2022-12-23T02:37:28.750Z,1.30
2022-12-23T02:40:09.723Z,1.03
2022-12-23T02:43:00.438Z,1.07
2022-12-23T02:45:34.160Z,1.07
2022-12-23T02:48:05.507Z,1.10
2022-12-23T02:50:35.937Z,1.10
2022-12-23T02:53:06.916Z,1.03
2022-12-23T02:55:35.860Z,1.10
2022-12-23T02:58:07.183Z,1.00
2022-12-23T03:00:34.893Z,1.20
2022-12-23T03:03:02.438Z,1.03
2022-12-23T03:05:40.615Z,0.97
2022-12-23T03:08:12.279Z,1.10
2022-12-23T03:10:49.084Z,1.00
2022-12-23T03:13:16.392Z,0.90
2022-12-23T03:15:52.851Z,1.17
2022-12-23T03:18:39.171Z,0.90
2022-12-23T03:21:09.595Z,1.27
2022-12-23T03:23:41.671Z,1.07
2022-12-23T03:26:17.167Z,1.00
2022-12-23T03:28:47.594Z,1.13
2022-12-23T03:31:18.020Z,1.00
2022-12-23T03:33:47.432Z,1.10
2022-12-23T03:36:21.145Z,1.27
2022-12-23T03:38:49.469Z,0.97
2022-12-23T03:41:23.761Z,0.97
2022-12-23T03:43:57.394Z,1.33
2022-12-23T03:46:30.002Z,0.83
2022-12-23T03:48:59.851Z,1.00
2022-12-23T03:51:30.590Z,1.10
2022-12-23T03:54:18.209Z,0.83
2022-12-23T03:56:52.945Z,0.90
2022-12-23T03:59:22.043Z,1.07
2022-12-23T04:01:58.475Z,1.20
2022-12-23T04:04:28.567Z,1.00
2022-12-23T04:06:57.862Z,1.30
2022-12-23T04:09:27.812Z,0.77
2022-12-23T04:11:55.500Z,1.40
2022-12-23T04:14:23.398Z,1.23
2022-12-23T04:16:53.992Z,1.10
2022-12-23T04:19:21.419Z,1.27
2022-12-23T04:21:48.794Z,1.10
2022-12-23T04:24:16.258Z,1.00
2022-12-23T04:26:43.578Z,1.00
2022-12-23T04:29:11.117Z,1.30
2022-12-23T04:31:38.634Z,1.10
2022-12-23T04:34:06.002Z,1.30
2022-12-23T04:36:33.533Z,0.90
2022-12-23T04:39:00.962Z,1.30
2022-12-23T04:41:28.257Z,1.10
2022-12-23T04:43:55.594Z,0.93
2022-12-23T04:46:22.970Z,0.77
2022-12-23T04:48:50.306Z,1.20
2022-12-23T04:51:17.648Z,1.00
2022-12-23T04:53:45.057Z,0.97
2022-12-23T04:56:12.411Z,1.17
2022-12-23T04:58:39.850Z,1.10
2022-12-23T05:01:08.784Z,1.07
2022-12-23T05:03:36.355Z,1.03
2022-12-23T05:06:03.948Z,1.23
2022-12-23T05:08:31.488Z,1.17
2022-12-23T05:10:59.199Z,1.30
2022-12-23T05:13:26.638Z,0.87
2022-12-23T05:15:54.648Z,1.07
2022-12-23T05:18:22.863Z,1.00
2022-12-23T05:20:50.616Z,0.97
2022-12-23T05:23:18.274Z,1.43
2022-12-23T05:25:50.823Z,1.10
2022-12-23T05:28:18.088Z,1.13
2022-12-23T05:30:45.484Z,1.20
2022-12-23T05:33:12.876Z,1.27
2022-12-23T05:35:40.264Z,1.30
2022-12-23T05:38:07.673Z,1.30
2022-12-23T05:40:35.111Z,1.30
2022-12-23T05:43:02.901Z,0.90
2022-12-23T05:45:30.342Z,1.03
2022-12-23T05:47:57.757Z,1.30
2022-12-23T05:50:25.156Z,0.87
2022-12-23T05:52:52.524Z,1.10
2022-12-23T05:55:20.046Z,1.07
2022-12-23T05:57:47.414Z,1.07
2022-12-23T06:00:15.219Z,1.60
2022-12-23T06:02:45.099Z,1.87
2022-12-23T06:05:14.955Z,1.20
2022-12-23T06:07:42.629Z,1.10
2022-12-23T06:10:10.717Z,1.00
2022-12-23T06:12:38.514Z,1.30
2022-12-23T06:15:06.352Z,1.17
2022-12-23T06:17:33.713Z,1.80
2022-12-23T06:20:01.136Z,1.60
2022-12-23T06:22:28.446Z,1.40
2022-12-23T06:24:55.885Z,1.50
2022-12-23T06:27:23.541Z,0.83
2022-12-23T06:29:50.794Z,1.60
2022-12-23T06:32:18.245Z,1.67
2022-12-23T06:34:46.692Z,0.80
2022-12-23T06:37:14.008Z,1.70
2022-12-23T06:39:41.304Z,1.10
2022-12-23T06:42:08.678Z,1.10
2022-12-23T06:44:36.002Z,1.43
2022-12-23T06:47:03.323Z,1.90
2022-12-23T06:49:30.664Z,1.40
2022-12-23T06:51:58.010Z,1.13
2022-12-23T06:54:25.302Z,2.20
2022-12-23T06:56:52.679Z,1.50
2022-12-23T06:59:20.029Z,2.27
2022-12-23T07:01:47.395Z,1.40
2022-12-23T07:04:14.828Z,1.73
2022-12-23T07:06:42.186Z,2.07
2022-12-23T07:09:09.573Z,1.87
2022-12-23T07:11:36.876Z,1.67
2022-12-23T07:14:04.282Z,2.07
2022-12-23T07:16:31.770Z,1.40
2022-12-23T07:18:59.144Z,1.83
2022-12-23T07:21:29.469Z,2.27
2022-12-23T07:23:57.304Z,1.60
2022-12-23T07:26:24.716Z,2.03
2022-12-23T07:28:52.139Z,2.27
2022-12-23T07:31:19.425Z,1.97
2022-12-23T07:33:46.975Z,2.40
2022-12-23T07:36:14.411Z,1.73
2022-12-23T07:38:41.817Z,2.03
2022-12-23T07:41:09.148Z,2.03
2022-12-23T07:43:36.472Z,1.90
2022-12-23T07:46:08.004Z,1.90
2022-12-23T07:48:35.510Z,2.70
2022-12-23T07:51:03.160Z,1.87
2022-12-23T07:53:30.581Z,2.47
2022-12-23T07:55:57.945Z,1.87
2022-12-23T07:58:25.698Z,1.80
2022-12-23T08:00:59.597Z,1.33
2022-12-23T08:03:27.077Z,1.57
2022-12-23T08:06:01.754Z,2.37
2022-12-23T08:08:29.277Z,2.30
2022-12-23T08:11:01.033Z,1.93
2022-12-23T08:13:28.530Z,2.00
2022-12-23T08:15:57.128Z,1.70
2022-12-23T08:18:24.962Z,1.50
2022-12-23T08:20:59.824Z,2.13
2022-12-23T08:23:28.666Z,1.80
2022-12-23T08:26:22.554Z,2.40
2022-12-23T08:28:53.405Z,1.87
2022-12-23T08:31:22.808Z,1.77
2022-12-23T08:33:52.093Z,2.13
2022-12-23T08:36:23.840Z,2.27
2022-12-23T08:38:52.754Z,2.10
2022-12-23T08:41:22.143Z,1.77
2022-12-23T08:43:49.581Z,2.60
2022-12-23T08:46:17.195Z,2.83
2022-12-23T08:48:49.157Z,1.80
2022-12-23T08:51:18.042Z,2.37
2022-12-23T08:53:45.514Z,1.83
2022-12-23T08:56:14.795Z,1.97
2022-12-23T08:58:46.690Z,1.80
2022-12-23T09:01:16.022Z,1.90
2022-12-23T09:03:43.727Z,2.63
2022-12-23T09:06:12.630Z,2.53
2022-12-23T09:08:39.930Z,2.77
2022-12-23T09:11:11.195Z,2.47
2022-12-23T09:13:38.583Z,2.10
2022-12-23T09:16:06.476Z,2.17
2022-12-23T09:18:34.276Z,2.23
2022-12-23T09:21:02.446Z,3.07
2022-12-23T09:23:29.877Z,2.83
2022-12-23T09:25:57.448Z,2.63
2022-12-23T09:28:25.045Z,2.70
2022-12-23T09:30:53.395Z,3.40
2022-12-23T09:33:20.698Z,2.40
2022-12-23T09:35:48.186Z,2.50
2022-12-23T09:38:15.539Z,2.27
2022-12-23T09:40:42.976Z,2.73
2022-12-23T09:43:25.366Z,2.43
2022-12-23T09:46:01.883Z,1.77
2022-12-23T09:48:30.889Z,2.93
2022-12-23T09:50:58.231Z,2.20
2022-12-23T09:53:41.018Z,2.27
2022-12-23T09:56:14.216Z,2.53
2022-12-23T09:58:41.623Z,2.67
2022-12-23T10:01:21.849Z,2.80
2022-12-23T10:04:04.546Z,2.60
2022-12-23T10:06:32.530Z,2.77
2022-12-23T10:09:02.021Z,2.57
2022-12-23T10:11:32.484Z,2.60
2022-12-23T10:14:05.237Z,2.50
2022-12-23T10:16:40.726Z,3.30
2022-12-23T10:19:27.119Z,2.93
2022-12-23T10:22:06.223Z,2.17
2022-12-23T10:24:33.473Z,2.40
2022-12-23T10:27:06.831Z,2.80
2022-12-23T10:29:34.677Z,2.00
2022-12-23T10:32:22.261Z,2.50
2022-12-23T10:34:55.532Z,2.30
2022-12-23T10:37:25.995Z,2.40
2022-12-23T10:39:53.356Z,3.17
2022-12-23T10:42:23.753Z,2.40
2022-12-23T10:45:13.919Z,2.40
2022-12-23T10:47:49.000Z,2.17
2022-12-23T10:50:19.331Z,2.20
2022-12-23T10:52:48.320Z,2.10
2022-12-23T10:55:20.285Z,2.37
2022-12-23T10:57:47.815Z,2.93
2022-12-23T11:00:21.432Z,1.73
2022-12-23T11:02:51.903Z,2.47
2022-12-23T11:05:25.068Z,2.07
2022-12-23T11:07:52.445Z,1.87
2022-12-23T11:10:26.334Z,1.97
2022-12-23T11:12:54.012Z,2.77
2022-12-23T11:15:30.780Z,2.40
2022-12-23T11:17:59.086Z,1.93
2022-12-23T11:20:26.666Z,2.10
2022-12-23T11:22:55.888Z,1.67
2022-12-23T11:25:34.872Z,2.00
2022-12-23T11:28:13.820Z,2.27
2022-12-23T11:30:56.713Z,1.87
2022-12-23T11:33:32.012Z,2.47
2022-12-23T11:36:03.797Z,1.83
2022-12-23T11:38:31.323Z,2.13
2022-12-23T11:40:58.888Z,1.73
2022-12-23T11:43:27.029Z,2.13
2022-12-23T11:46:13.211Z,1.90
2022-12-23T11:48:40.560Z,1.83
2022-12-23T11:51:07.931Z,2.20
2022-12-23T11:53:36.704Z,1.87
2022-12-23T11:56:04.171Z,2.47
2022-12-23T11:58:35.623Z,2.10
2022-12-23T12:01:08.264Z,1.77
2022-12-23T12:03:39.006Z,1.50
2022-12-23T12:06:06.913Z,2.77
2022-12-23T12:08:37.024Z,1.63
2022-12-23T12:11:13.730Z,1.90
2022-12-23T12:13:42.676Z,2.13
2022-12-23T12:16:31.373Z,1.73
2022-12-23T12:19:03.395Z,2.53
2022-12-23T12:21:33.854Z,2.07
2022-12-23T12:24:18.459Z,1.57
2022-12-23T12:26:51.079Z,2.23
2022-12-23T12:29:25.339Z,2.17
2022-12-23T12:31:54.278Z,2.13
2022-12-23T12:34:40.562Z,1.67
2022-12-23T12:37:14.858Z,2.10
2022-12-23T12:39:43.504Z,1.47
2022-12-23T12:42:15.581Z,2.40
2022-12-23T12:44:55.202Z,1.80
2022-12-23T12:47:52.902Z,2.47
2022-12-23T12:50:17.380Z,1.80
2022-12-23T12:52:44.747Z,2.33
2022-12-23T12:55:21.978Z,1.90
2022-12-23T12:57:49.412Z,2.00
2022-12-23T13:00:18.444Z,2.53
2022-12-23T13:03:04.703Z,2.40
2022-12-23T13:05:35.241Z,2.73
2022-12-23T13:08:21.524Z,2.17
2022-12-23T13:10:59.935Z,2.27
2022-12-23T13:13:42.651Z,2.33
2022-12-23T13:16:09.966Z,2.47
2022-12-23T13:18:42.377Z,2.20
2022-12-23T13:21:14.600Z,3.40
2022-12-23T13:23:49.756Z,2.27
2022-12-23T13:26:20.025Z,2.77
2022-12-23T13:28:59.642Z,2.47
2022-12-23T13:31:49.879Z,2.30
2022-12-23T13:34:25.951Z,2.23
2022-12-23T13:36:58.800Z,2.27
2022-12-23T13:39:46.729Z,2.43
2022-12-23T13:42:25.951Z,3.10
2022-12-23T13:44:53.683Z,2.40
2022-12-23T13:47:42.042Z,2.67
2022-12-23T13:50:13.495Z,2.23
2022-12-23T13:52:50.895Z,3.07
2022-12-23T13:55:30.331Z,2.57
2022-12-23T13:58:01.815Z,2.57
2022-12-23T14:00:35.335Z,3.07
2022-12-23T14:03:04.344Z,2.50
2022-12-23T14:05:37.907Z,2.73
2022-12-23T14:08:05.434Z,2.20
2022-12-23T14:10:33.620Z,3.00
2022-12-23T14:13:02.935Z,2.60
2022-12-23T14:15:51.229Z,2.80
2022-12-23T14:18:21.987Z,1.83
2022-12-23T14:20:51.793Z,2.53
2022-12-23T14:23:31.005Z,2.20
2022-12-23T14:26:17.235Z,2.43
2022-12-23T14:28:56.721Z,3.23
2022-12-23T14:31:41.365Z,2.80
2022-12-23T14:34:18.002Z,2.87
2022-12-23T14:37:04.216Z,3.17
2022-12-23T14:39:32.920Z,2.80
2022-12-23T14:42:06.048Z,3.07
2022-12-23T14:44:38.657Z,2.60
2022-12-23T14:47:06.662Z,2.70
2022-12-23T14:49:40.666Z,2.80
2022-12-23T14:52:27.209Z,2.17
2022-12-23T14:55:27.970Z,2.70
2022-12-23T14:57:42.021Z,2.30
2022-12-23T15:00:12.519Z,2.40
2022-12-23T15:02:43.864Z,2.93
2022-12-23T15:05:11.262Z,2.47
2022-12-23T15:07:43.409Z,2.63
2022-12-23T15:10:18.457Z,2.43
2022-12-23T15:12:50.136Z,2.70
2022-12-23T15:15:21.882Z,2.47
2022-12-23T15:17:49.577Z,2.60
2022-12-23T15:20:20.164Z,2.23
2022-12-23T15:22:48.464Z,1.77
2022-12-23T15:25:21.960Z,2.10
2022-12-23T15:27:49.549Z,2.00
2022-12-23T15:30:17.757Z,2.30
2022-12-23T15:32:46.162Z,2.40
2022-12-23T15:35:29.195Z,2.20
2022-12-23T15:37:57.560Z,2.00
2022-12-23T15:40:35.629Z,2.10
2022-12-23T15:43:03.766Z,1.93
2022-12-23T15:45:33.286Z,2.07
2022-12-23T15:48:01.244Z,2.40
2022-12-23T15:50:29.239Z,1.77
2022-12-23T15:52:58.956Z,2.90
2022-12-23T15:55:29.575Z,1.87
2022-12-23T15:57:57.580Z,2.10
2022-12-23T16:00:26.997Z,2.07
2022-12-23T16:03:01.094Z,2.47
2022-12-23T16:05:31.270Z,2.67
2022-12-23T16:08:11.747Z,2.27
2022-12-23T16:10:39.955Z,2.00
2022-12-23T16:13:17.034Z,2.03
2022-12-23T16:15:45.077Z,1.97
2022-12-23T16:18:13.949Z,2.30
2022-12-23T16:20:42.773Z,2.03
2022-12-23T16:23:11.662Z,1.90
2022-12-23T16:25:39.220Z,2.17
2022-12-23T16:28:09.611Z,2.20
2022-12-23T16:30:41.938Z,1.73
2022-12-23T16:33:28.405Z,2.90
2022-12-23T16:35:56.593Z,2.13
2022-12-23T16:38:27.191Z,2.53
2022-12-23T16:40:55.620Z,2.10
2022-12-23T16:43:24.004Z,1.93
2022-12-23T16:45:52.934Z,2.33
2022-12-23T16:48:20.429Z,2.00
2022-12-23T16:50:47.751Z,2.00
2022-12-23T16:53:15.857Z,2.03
2022-12-23T16:55:51.171Z,2.33
2022-12-23T16:58:22.532Z,1.80
2022-12-23T17:00:50.060Z,2.33
2022-12-23T17:03:18.954Z,2.60
2022-12-23T17:05:47.515Z,1.80
2022-12-23T17:08:14.974Z,1.73
2022-12-23T17:10:44.632Z,2.20
2022-12-23T17:13:17.125Z,3.00
2022-12-23T17:15:44.746Z,1.97
2022-12-23T17:18:16.551Z,1.83
2022-12-23T17:20:48.436Z,2.10
2022-12-23T17:23:36.091Z,1.80
2022-12-23T17:26:03.653Z,2.10
2022-12-23T17:28:32.549Z,1.63
2022-12-23T17:31:00.307Z,2.07
2022-12-23T17:33:29.418Z,2.07
2022-12-23T17:35:56.820Z,2.30
2022-12-23T17:38:24.468Z,2.47
2022-12-23T17:40:52.066Z,2.27
2022-12-23T17:43:19.744Z,2.43
2022-12-23T17:45:47.377Z,2.27
2022-12-23T17:48:23.122Z,2.60
2022-12-23T17:50:52.732Z,2.03
2022-12-23T17:53:20.575Z,1.83
2022-12-23T17:55:48.154Z,1.70
2022-12-23T17:58:15.979Z,2.07
2022-12-23T18:00:43.502Z,2.30
2022-12-23T18:03:15.942Z,1.60
2022-12-23T18:05:43.420Z,2.27
2022-12-23T18:08:10.898Z,1.67
2022-12-23T18:10:40.412Z,1.50
2022-12-23T18:13:10.126Z,1.33
2022-12-23T18:15:38.823Z,1.47
2022-12-23T18:18:22.016Z,1.63
2022-12-23T18:20:55.523Z,1.47
2022-12-23T18:23:27.711Z,1.63
2022-12-23T18:25:55.870Z,1.17
2022-12-23T18:28:23.649Z,1.17
2022-12-23T18:30:52.170Z,1.00
2022-12-23T18:33:20.399Z,1.10
2022-12-23T18:35:48.982Z,1.27
2022-12-23T18:38:17.093Z,0.93
2022-12-23T18:40:44.819Z,1.30
2022-12-23T18:43:19.806Z,1.10
2022-12-23T18:45:52.459Z,1.20
2022-12-23T18:48:21.423Z,0.90
2022-12-23T18:50:49.032Z,1.43
2022-12-23T18:53:23.448Z,1.33
2022-12-23T18:55:52.311Z,1.20
2022-12-23T18:58:19.776Z,1.17
2022-12-23T19:00:47.650Z,1.17
2022-12-23T19:03:26.432Z,1.00
2022-12-23T19:05:54.400Z,0.80
2022-12-23T19:08:26.635Z,1.17
2022-12-23T19:10:55.261Z,0.90
2022-12-23T19:13:22.643Z,0.93
2022-12-23T19:15:50.260Z,1.43
2022-12-23T19:18:18.863Z,0.87
2022-12-23T19:20:46.881Z,0.80
2022-12-23T19:23:14.563Z,1.10
2022-12-23T19:25:46.203Z,1.10
2022-12-23T19:28:20.070Z,0.97
2022-12-23T19:30:47.512Z,1.40
2022-12-23T19:33:14.879Z,1.13
2022-12-23T19:35:43.050Z,1.00
2022-12-23T19:38:10.410Z,0.90
2022-12-23T19:40:37.765Z,1.33
2022-12-23T19:43:05.340Z,0.90
2022-12-23T19:45:32.653Z,0.80
2022-12-23T19:48:00.033Z,1.10
2022-12-23T19:50:27.414Z,0.87
2022-12-23T19:52:56.464Z,1.00
2022-12-23T19:55:24.146Z,1.40
2022-12-23T19:57:52.246Z,0.93
2022-12-23T20:00:19.668Z,1.00
2022-12-23T20:02:47.018Z,0.90
2022-12-23T20:05:14.325Z,1.00
2022-12-23T20:07:41.696Z,1.83
2022-12-23T20:10:09.260Z,1.40
2022-12-23T20:12:36.738Z,0.97
2022-12-23T20:15:04.334Z,1.17
2022-12-23T20:17:31.728Z,0.80
2022-12-23T20:19:59.098Z,1.00
2022-12-23T20:22:26.466Z,0.97
2022-12-23T20:24:53.907Z,0.93
2022-12-23T20:27:25.997Z,1.50
2022-12-23T20:29:55.377Z,1.20
2022-12-23T20:32:22.773Z,0.90
2022-12-23T20:34:50.244Z,1.00
2022-12-23T20:37:17.689Z,0.90
2022-12-23T20:39:45.079Z,1.20
2022-12-23T20:42:12.403Z,0.73
2022-12-23T20:44:39.755Z,1.47
2022-12-23T20:47:07.377Z,0.97
2022-12-23T20:49:34.766Z,1.30
2022-12-23T20:52:02.226Z,0.83
2022-12-23T20:54:33.422Z,0.63
2022-12-23T20:57:02.553Z,1.10
2022-12-23T20:59:30.086Z,0.87
2022-12-23T21:01:59.215Z,0.93
2022-12-23T21:04:27.035Z,1.03
2022-12-23T21:06:54.364Z,1.37
2022-12-23T21:09:21.749Z,0.83
2022-12-23T21:11:49.161Z,0.90
2022-12-23T21:14:16.665Z,0.90
2022-12-23T21:16:44.486Z,0.90
2022-12-23T21:19:30.180Z,0.80
2022-12-23T21:21:57.669Z,1.10
2022-12-23T21:24:25.720Z,0.97
2022-12-23T21:26:57.378Z,0.57
2022-12-23T21:29:24.991Z,0.87
2022-12-23T21:31:52.534Z,1.20
2022-12-23T21:34:19.908Z,0.93
2022-12-23T21:36:47.412Z,1.63
2022-12-23T21:39:16.141Z,0.60
2022-12-23T21:41:44.008Z,0.87
2022-12-23T21:44:13.662Z,0.87
2022-12-23T21:46:41.079Z,0.87
2022-12-23T21:49:08.538Z,1.00
2022-12-23T21:51:40.258Z,0.90
2022-12-23T21:54:08.655Z,0.70
2022-12-23T21:56:36.277Z,0.80
2022-12-23T21:59:08.074Z,0.90
2022-12-23T22:01:35.729Z,0.90
2022-12-23T22:04:03.640Z,1.00
2022-12-23T22:06:33.015Z,1.17
2022-12-23T22:09:00.574Z,0.77
2022-12-23T22:11:29.389Z,1.07
2022-12-23T22:13:57.989Z,0.90
2022-12-23T22:16:26.224Z,0.80
2022-12-23T22:18:54.302Z,0.77
2022-12-23T22:21:23.289Z,0.80
2022-12-23T22:23:51.324Z,0.80
2022-12-23T22:26:24.845Z,0.90
2022-12-23T22:28:53.738Z,0.90
2022-12-23T22:31:21.105Z,0.97
2022-12-23T22:33:48.493Z,1.40
2022-12-23T22:36:16.278Z,0.77
2022-12-23T22:38:44.083Z,1.00
2022-12-23T22:41:11.487Z,1.00
2022-12-23T22:43:39.010Z,1.00
2022-12-23T22:46:06.683Z,0.93
2022-12-23T22:48:34.323Z,0.83
2022-12-23T22:51:21.928Z,1.00
2022-12-23T22:53:49.751Z,0.90
2022-12-23T22:56:17.998Z,0.90
2022-12-23T22:58:45.364Z,0.80
2022-12-23T23:01:36.113Z,1.07
2022-12-23T23:04:04.727Z,1.20
2022-12-23T23:06:33.229Z,1.23
2022-12-23T23:09:02.194Z,1.13
2022-12-23T23:11:29.919Z,0.80
2022-12-23T23:13:57.549Z,1.17
2022-12-23T23:16:25.471Z,0.90
2022-12-23T23:18:53.373Z,1.33
2022-12-23T23:21:21.230Z,1.00
2022-12-23T23:23:48.578Z,1.10
2022-12-23T23:26:16.602Z,1.27
2022-12-23T23:28:44.022Z,1.17
2022-12-23T23:33:59.126Z,1.00
2022-12-23T23:36:26.601Z,0.87
2022-12-23T23:38:54.034Z,1.50
2022-12-23T23:41:23.841Z,1.27
2022-12-23T23:43:52.063Z,1.07
2022-12-23T23:46:19.479Z,1.13
2022-12-23T23:48:48.189Z,1.20
2022-12-23T23:51:15.586Z,0.90
2022-12-23T23:53:42.901Z,1.03
2022-12-23T23:56:10.287Z,1.37
2022-12-23T23:58:37.930Z,2.50
